createdAt,value
2023-01-29T00:01:23.709Z,101603.84
2023-01-29T00:03:53.286Z,101608.94
2023-01-29T00:06:20.375Z,101614.88
2023-01-29T00:08:46.894Z,101620.13
2023-01-29T00:11:13.933Z,101609.50
2023-01-29T00:13:41.033Z,101610.72
2023-01-29T00:16:07.548Z,101613.09
2023-01-29T00:18:37.791Z,101612.53
2023-01-29T00:21:04.407Z,101613.84
2023-01-29T00:23:30.822Z,101608.28
2023-01-29T00:26:00.049Z,101615.03
2023-01-29T00:28:26.422Z,101622.25
2023-01-29T00:30:52.814Z,101632.72
2023-01-29T00:33:19.202Z,101634.53
2023-01-29T00:35:45.593Z,101630.97
2023-01-29T00:38:11.941Z,101625.84
2023-01-29T00:40:57.925Z,101636.09
2023-01-29T00:43:44.654Z,101637.34
2023-01-29T00:46:11.297Z,101640.41
2023-01-29T00:48:37.845Z,101643.09
2023-01-29T00:51:04.359Z,101636.50
2023-01-29T00:53:30.790Z,101623.00
2023-01-29T00:55:57.342Z,101630.34
2023-01-29T00:58:28.344Z,101634.75
2023-01-29T01:00:55.931Z,101637.16
2023-01-29T01:03:22.390Z,101636.91
2023-01-29T01:05:48.803Z,101635.34
2023-01-29T01:08:33.925Z,101628.22
2023-01-29T01:11:04.146Z,101621.78
2023-01-29T01:13:32.917Z,101616.72
2023-01-29T01:15:59.766Z,101620.50
2023-01-29T01:18:30.066Z,101622.13
2023-01-29T01:20:59.703Z,101624.44
2023-01-29T01:23:27.030Z,101614.38
2023-01-29T01:25:53.549Z,101618.66
2023-01-29T01:28:19.962Z,101608.06
2023-01-29T01:30:46.615Z,101611.78
2023-01-29T01:33:13.126Z,101605.25
2023-01-29T01:35:40.939Z,101601.47
2023-01-29T01:38:07.603Z,101595.59
2023-01-29T01:40:34.210Z,101596.53
2023-01-29T01:43:01.693Z,101595.69
2023-01-29T01:45:36.184Z,101590.31
2023-01-29T01:48:24.825Z,101588.56
2023-01-29T01:51:03.372Z,101582.69
2023-01-29T01:53:39.115Z,101581.59
2023-01-29T01:56:10.187Z,101571.09
2023-01-29T01:58:51.191Z,101574.47
2023-01-29T02:01:18.846Z,101571.88
2023-01-29T02:04:14.115Z,101569.19
2023-01-29T02:06:59.920Z,101561.72
2023-01-29T02:09:34.395Z,101556.50
2023-01-29T02:12:10.841Z,101560.03
2023-01-29T02:14:40.209Z,101560.41
2023-01-29T02:17:09.260Z,101557.84
2023-01-29T02:19:46.891Z,101551.56
2023-01-29T02:22:17.043Z,101554.22
2023-01-29T02:25:09.935Z,101552.91
2023-01-29T02:27:48.382Z,101552.63
2023-01-29T02:30:15.255Z,101553.22
2023-01-29T02:32:54.469Z,101551.09
2023-01-29T02:35:30.571Z,101547.59
2023-01-29T02:38:10.684Z,101554.22
2023-01-29T02:40:45.404Z,101557.09
2023-01-29T02:43:35.646Z,101567.59
2023-01-29T02:46:23.525Z,101574.00
2023-01-29T02:49:24.657Z,101582.34
2023-01-29T02:52:11.963Z,101578.53
2023-01-29T02:55:04.792Z,101590.78
2023-01-29T02:57:39.530Z,101598.81
2023-01-29T03:00:36.354Z,101595.66
2023-01-29T03:03:15.401Z,101596.69
2023-01-29T03:05:54.983Z,101601.47
2023-01-29T03:08:37.250Z,101600.38
2023-01-29T03:11:07.297Z,101592.72
2023-01-29T03:13:36.659Z,101589.44
2023-01-29T03:16:27.130Z,101575.19
2023-01-29T03:19:07.686Z,101573.56
2023-01-29T03:21:59.380Z,101576.06
2023-01-29T03:25:09.009Z,101573.69
2023-01-29T03:28:10.454Z,101581.09
2023-01-29T03:31:02.326Z,101592.63
2023-01-29T03:33:32.975Z,101590.56
2023-01-29T03:36:07.192Z,101589.56
2023-01-29T03:38:33.702Z,101593.41
2023-01-29T03:41:08.971Z,101598.38
2023-01-29T03:43:38.074Z,101598.34
2023-01-29T03:46:18.984Z,101599.59
2023-01-29T03:48:54.627Z,101597.22
2023-01-29T03:51:28.907Z,101589.25
2023-01-29T03:54:04.306Z,101586.25
2023-01-29T03:56:40.094Z,101591.19
2023-01-29T03:59:32.687Z,101583.81
2023-01-29T04:02:04.765Z,101575.28
2023-01-29T04:04:34.415Z,101588.97
2023-01-29T04:07:13.807Z,101593.00
2023-01-29T04:10:03.431Z,101589.28
2023-01-29T04:12:36.048Z,101597.50
2023-01-29T04:15:07.876Z,101589.88
2023-01-29T04:17:39.420Z,101582.06
2023-01-29T04:20:06.699Z,101570.25
2023-01-29T04:22:36.446Z,101567.97
2023-01-29T04:25:08.566Z,101571.28
2023-01-29T04:28:02.783Z,101572.09
2023-01-29T04:30:29.606Z,101570.97
2023-01-29T04:33:06.631Z,101569.22
2023-01-29T04:35:36.147Z,101562.81
2023-01-29T04:38:40.145Z,101568.28
2023-01-29T04:41:46.171Z,101573.31
2023-01-29T04:44:50.057Z,101567.56
2023-01-29T04:47:32.947Z,101571.81
2023-01-29T04:50:26.954Z,101577.66
2023-01-29T04:53:04.766Z,101572.44
2023-01-29T04:55:43.291Z,101575.22
2023-01-29T04:58:17.141Z,101573.03
2023-01-29T05:00:45.531Z,101567.66
2023-01-29T05:03:14.362Z,101574.72
2023-01-29T05:05:43.168Z,101566.81
2023-01-29T05:08:13.550Z,101574.41
2023-01-29T05:10:40.505Z,101572.34
2023-01-29T05:13:11.042Z,101575.25
2023-01-29T05:15:41.935Z,101574.81
2023-01-29T05:18:09.067Z,101581.44
2023-01-29T05:20:41.819Z,101585.44
2023-01-29T05:23:17.631Z,101578.03
2023-01-29T05:25:44.443Z,101571.47
2023-01-29T05:28:17.342Z,101571.13
2023-01-29T05:30:46.655Z,101572.72
2023-01-29T05:33:39.498Z,101567.06
2023-01-29T05:36:07.028Z,101563.28
2023-01-29T05:38:33.535Z,101547.41
2023-01-29T05:40:59.965Z,101549.25
2023-01-29T05:43:27.080Z,101556.31
2023-01-29T05:46:01.754Z,101554.41
2023-01-29T05:48:29.498Z,101572.84
2023-01-29T05:51:04.014Z,101567.66
2023-01-29T05:53:31.052Z,101564.63
2023-01-29T05:56:01.652Z,101566.09
2023-01-29T05:58:29.904Z,101562.72
2023-01-29T06:00:56.348Z,101572.09
2023-01-29T06:03:22.762Z,101579.66
2023-01-29T06:05:49.226Z,101588.13
2023-01-29T06:08:19.019Z,101582.63
2023-01-29T06:10:45.403Z,101568.72
2023-01-29T06:13:11.830Z,101579.84
2023-01-29T06:15:41.060Z,101579.75
2023-01-29T06:18:07.472Z,101582.13
2023-01-29T06:20:33.881Z,101578.03
2023-01-29T06:23:00.435Z,101568.66
2023-01-29T06:25:26.925Z,101583.16
2023-01-29T06:27:53.389Z,101577.09
2023-01-29T06:30:20.143Z,101564.78
2023-01-29T06:32:46.650Z,101556.72
2023-01-29T06:35:13.047Z,101556.28
2023-01-29T06:37:39.497Z,101550.88
2023-01-29T06:40:06.622Z,101550.00
2023-01-29T06:42:35.500Z,101553.16
2023-01-29T06:45:01.887Z,101555.94
2023-01-29T06:47:28.394Z,101560.25
2023-01-29T06:49:55.078Z,101564.50
2023-01-29T06:52:21.579Z,101558.47
2023-01-29T06:54:48.072Z,101566.22
2023-01-29T06:57:14.521Z,101563.47
2023-01-29T06:59:40.949Z,101566.84
2023-01-29T07:02:07.432Z,101567.75
2023-01-29T07:04:35.463Z,101563.47
2023-01-29T07:07:01.894Z,101570.53
2023-01-29T07:09:28.429Z,101568.84
2023-01-29T07:11:54.992Z,101559.19
2023-01-29T07:14:21.430Z,101569.47
2023-01-29T07:16:47.890Z,101568.75
2023-01-29T07:19:14.478Z,101571.72
2023-01-29T07:21:41.037Z,101575.38
2023-01-29T07:24:07.777Z,101575.66
2023-01-29T07:26:34.232Z,101582.91
2023-01-29T07:29:00.671Z,101581.44
2023-01-29T07:31:27.205Z,101596.38
2023-01-29T07:33:53.747Z,101600.69
2023-01-29T07:36:20.224Z,101601.72
2023-01-29T07:38:50.605Z,101607.94
2023-01-29T07:41:17.375Z,101603.88
2023-01-29T07:43:43.853Z,101605.75
2023-01-29T07:46:10.393Z,101606.03
2023-01-29T07:48:37.024Z,101598.13
2023-01-29T07:51:03.539Z,101607.66
2023-01-29T07:53:30.603Z,101598.25
2023-01-29T07:55:57.354Z,101597.59
2023-01-29T07:58:24.122Z,101589.13
2023-01-29T08:00:50.620Z,101589.06
2023-01-29T08:03:22.422Z,101589.44
2023-01-29T08:05:48.897Z,101591.47
2023-01-29T08:08:15.451Z,101584.41
2023-01-29T08:10:42.952Z,101585.44
2023-01-29T08:13:09.669Z,101578.22
2023-01-29T08:18:22.545Z,101589.19
2023-01-29T08:20:48.998Z,101578.91
2023-01-29T08:23:16.536Z,101572.81
2023-01-29T08:25:43.535Z,101579.53
2023-01-29T08:28:11.704Z,101591.09
2023-01-29T08:30:38.326Z,101597.50
2023-01-29T08:33:04.976Z,101597.13
2023-01-29T08:35:31.568Z,101592.38
2023-01-29T08:38:00.257Z,101592.91
2023-01-29T08:40:28.648Z,101579.78
2023-01-29T08:43:02.012Z,101572.09
2023-01-29T08:45:30.132Z,101569.44
2023-01-29T08:47:56.683Z,101571.22
2023-01-29T08:50:23.196Z,101577.06
2023-01-29T08:52:49.754Z,101573.69
2023-01-29T08:55:16.554Z,101571.09
2023-01-29T08:57:43.137Z,101573.09
2023-01-29T09:00:10.610Z,101594.19
2023-01-29T09:02:37.797Z,101597.69
2023-01-29T09:05:04.923Z,101609.97
2023-01-29T09:07:31.386Z,101610.03
2023-01-29T09:09:57.850Z,101610.50
2023-01-29T09:12:24.848Z,101619.19
2023-01-29T09:14:51.344Z,101612.28
2023-01-29T09:17:18.092Z,101602.75
2023-01-29T09:19:44.494Z,101621.81
2023-01-29T09:22:12.026Z,101626.47
2023-01-29T09:24:38.675Z,101628.94
2023-01-29T09:27:06.201Z,101632.25
2023-01-29T09:29:35.661Z,101632.56
2023-01-29T09:32:03.965Z,101623.31
2023-01-29T09:34:30.426Z,101608.50
2023-01-29T09:36:56.879Z,101621.00
2023-01-29T09:39:23.368Z,101628.22
2023-01-29T09:41:56.398Z,101635.03
2023-01-29T09:44:46.296Z,101637.09
2023-01-29T09:47:15.647Z,101642.47
2023-01-29T09:49:48.533Z,101631.81
2023-01-29T09:52:14.913Z,101621.66
2023-01-29T09:54:49.721Z,101625.59
2023-01-29T09:57:24.829Z,101628.69
2023-01-29T09:59:51.530Z,101630.28
2023-01-29T10:02:52.357Z,101646.31
2023-01-29T10:05:21.831Z,101640.03
2023-01-29T10:08:06.928Z,101635.88
2023-01-29T10:10:39.644Z,101632.78
2023-01-29T10:13:25.843Z,101629.88
2023-01-29T10:16:13.542Z,101619.47
2023-01-29T10:18:52.038Z,101624.91
2023-01-29T10:21:55.955Z,101621.44
2023-01-29T10:24:36.574Z,101619.19
2023-01-29T10:27:11.766Z,101623.44
2023-01-29T10:29:42.430Z,101624.72
2023-01-29T10:32:15.465Z,101627.66
2023-01-29T10:34:48.356Z,101611.06
2023-01-29T10:37:37.549Z,101609.44
2023-01-29T10:40:23.293Z,101600.50
2023-01-29T10:43:08.965Z,101573.91
2023-01-29T10:45:57.807Z,101567.91
2023-01-29T10:48:38.223Z,101568.56
2023-01-29T10:51:41.168Z,101560.19
2023-01-29T10:54:29.868Z,101549.44
2023-01-29T10:57:03.982Z,101539.38
2023-01-29T10:59:48.418Z,101544.09
2023-01-29T11:02:21.249Z,101519.78
2023-01-29T11:04:47.880Z,101526.50
2023-01-29T11:07:17.851Z,101519.84
2023-01-29T11:09:54.631Z,101515.03
2023-01-29T11:12:30.534Z,101505.19
2023-01-29T11:14:59.599Z,101497.28
2023-01-29T11:17:26.767Z,101506.59
2023-01-29T11:19:57.751Z,101500.59
2023-01-29T11:22:26.596Z,101497.94
2023-01-29T11:25:19.436Z,101492.63
2023-01-29T11:27:48.562Z,101495.19
2023-01-29T11:30:27.114Z,101492.91
2023-01-29T11:33:10.070Z,101488.19
2023-01-29T11:35:37.144Z,101487.63
2023-01-29T11:38:15.740Z,101486.13
2023-01-29T11:40:44.131Z,101474.41
2023-01-29T11:43:13.610Z,101476.56
2023-01-29T11:45:40.677Z,101467.44
2023-01-29T11:48:15.113Z,101475.19
2023-01-29T11:50:41.845Z,101472.06
2023-01-29T11:53:23.833Z,101476.38
2023-01-29T11:55:51.725Z,101474.59
2023-01-29T11:58:27.418Z,101474.34
2023-01-29T12:00:55.571Z,101473.75
2023-01-29T12:03:31.223Z,101467.94
2023-01-29T12:06:02.862Z,101464.13
2023-01-29T12:08:39.929Z,101465.72
2023-01-29T12:11:09.394Z,101449.91
2023-01-29T12:13:36.176Z,101435.75
2023-01-29T12:16:14.468Z,101429.06
2023-01-29T12:19:00.965Z,101424.28
2023-01-29T12:21:35.943Z,101416.09
2023-01-29T12:24:23.859Z,101415.06
2023-01-29T12:26:57.834Z,101410.31
2023-01-29T12:29:33.823Z,101399.50
2023-01-29T12:32:20.549Z,101382.91
2023-01-29T12:35:03.621Z,101390.38
2023-01-29T12:37:56.450Z,101379.13
2023-01-29T12:40:26.979Z,101380.84
2023-01-29T12:43:01.475Z,101374.84
2023-01-29T12:45:29.284Z,101369.78
2023-01-29T12:48:01.293Z,101363.25
2023-01-29T12:50:34.861Z,101370.31
2023-01-29T12:53:23.338Z,101366.56
2023-01-29T12:55:55.530Z,101370.69
2023-01-29T12:58:37.799Z,101361.91
2023-01-29T13:01:19.359Z,101354.19
2023-01-29T13:03:53.417Z,101361.03
2023-01-29T13:06:30.344Z,101353.78
2023-01-29T13:09:28.325Z,101345.25
2023-01-29T13:12:07.483Z,101340.72
2023-01-29T13:14:49.776Z,101338.50
2023-01-29T13:17:24.344Z,101339.97
2023-01-29T13:19:54.335Z,101331.94
2023-01-29T13:22:32.338Z,101325.25
2023-01-29T13:25:05.103Z,101319.44
2023-01-29T13:27:35.050Z,101326.34
2023-01-29T13:30:02.062Z,101319.34
2023-01-29T13:32:35.122Z,101316.31
2023-01-29T13:35:06.057Z,101315.47
2023-01-29T13:37:38.083Z,101318.66
2023-01-29T13:40:07.030Z,101308.47
2023-01-29T13:42:41.169Z,101306.75
2023-01-29T13:45:09.197Z,101296.59
2023-01-29T13:47:39.431Z,101298.81
2023-01-29T13:50:18.882Z,101294.97
2023-01-29T13:52:46.749Z,101293.25
2023-01-29T13:55:21.229Z,101293.78
2023-01-29T13:57:50.458Z,101291.31
2023-01-29T14:00:22.617Z,101290.53
2023-01-29T14:03:11.598Z,101292.63
2023-01-29T14:05:41.796Z,101281.13
2023-01-29T14:08:14.322Z,101277.28
2023-01-29T14:10:42.410Z,101277.19
2023-01-29T14:13:11.680Z,101269.88
2023-01-29T14:15:40.071Z,101269.31
2023-01-29T14:18:17.367Z,101267.03
2023-01-29T14:20:57.146Z,101262.56
2023-01-29T14:23:29.830Z,101270.09
2023-01-29T14:25:59.063Z,101262.50
2023-01-29T14:28:29.849Z,101260.94
2023-01-29T14:30:56.893Z,101269.59
2023-01-29T14:33:23.371Z,101264.47
2023-01-29T14:35:52.203Z,101273.31
2023-01-29T14:38:19.365Z,101266.06
2023-01-29T14:40:47.034Z,101264.75
2023-01-29T14:43:20.030Z,101258.66
2023-01-29T14:45:50.079Z,101264.81
2023-01-29T14:48:35.050Z,101258.63
2023-01-29T14:51:20.592Z,101254.22
2023-01-29T14:54:02.557Z,101245.19
2023-01-29T14:56:49.935Z,101243.00
2023-01-29T14:59:22.073Z,101246.34
2023-01-29T15:01:54.900Z,101250.44
2023-01-29T15:04:43.032Z,101245.28
2023-01-29T15:07:09.380Z,101243.50
2023-01-29T15:10:01.340Z,101233.66
2023-01-29T15:12:48.368Z,101232.84
2023-01-29T15:15:33.205Z,101229.38
2023-01-29T15:18:12.829Z,101232.84
2023-01-29T15:20:41.104Z,101233.06
2023-01-29T15:23:44.245Z,101228.47
2023-01-29T15:26:24.219Z,101228.59
2023-01-29T15:29:03.422Z,101225.72
2023-01-29T15:31:31.244Z,101221.16
2023-01-29T15:34:02.964Z,101222.19
2023-01-29T15:36:31.578Z,101220.22
2023-01-29T15:39:15.565Z,101215.00
2023-01-29T15:41:42.625Z,101208.81
2023-01-29T15:44:16.428Z,101207.94
2023-01-29T15:46:46.933Z,101204.28
2023-01-29T15:49:30.927Z,101204.81
2023-01-29T15:51:59.785Z,101197.88
2023-01-29T15:54:31.421Z,101206.47
2023-01-29T15:56:59.063Z,101197.03
2023-01-29T15:59:34.559Z,101196.09
2023-01-29T16:02:42.307Z,101200.94
2023-01-29T16:05:16.370Z,101193.06
2023-01-29T16:07:44.223Z,101192.06
2023-01-29T16:10:31.540Z,101189.38
2023-01-29T16:12:58.925Z,101183.81
2023-01-29T16:15:40.258Z,101186.41
2023-01-29T16:18:25.707Z,101197.63
2023-01-29T16:20:54.787Z,101191.25
2023-01-29T16:23:29.486Z,101197.44
2023-01-29T16:26:01.537Z,101192.03
2023-01-29T16:28:28.393Z,101199.97
2023-01-29T16:30:58.196Z,101203.69
2023-01-29T16:33:34.953Z,101204.16
2023-01-29T16:36:05.652Z,101199.69
2023-01-29T16:38:35.462Z,101203.91
2023-01-29T16:41:07.177Z,101209.97
2023-01-29T16:43:51.761Z,101213.44
2023-01-29T16:46:37.638Z,101224.03
2023-01-29T16:49:25.751Z,101228.22
2023-01-29T16:51:54.176Z,101231.63
2023-01-29T16:54:23.544Z,101232.22
2023-01-29T16:56:52.888Z,101229.50
2023-01-29T16:59:26.941Z,101227.53
2023-01-29T17:01:55.670Z,101227.19
2023-01-29T17:04:22.569Z,101229.50
2023-01-29T17:06:54.988Z,101230.38
2023-01-29T17:09:29.663Z,101239.00
2023-01-29T17:12:06.789Z,101248.59
2023-01-29T17:14:35.820Z,101246.63
2023-01-29T17:17:03.830Z,101248.44
2023-01-29T17:19:30.383Z,101249.28
2023-01-29T17:21:58.922Z,101241.94
2023-01-29T17:24:26.322Z,101238.13
2023-01-29T17:26:53.874Z,101246.16
2023-01-29T17:29:26.503Z,101252.28
2023-01-29T17:31:52.969Z,101253.28
2023-01-29T17:34:19.501Z,101248.53
2023-01-29T17:36:46.111Z,101251.59
2023-01-29T17:39:17.617Z,101245.38
2023-01-29T17:41:47.442Z,101259.72
2023-01-29T17:44:14.005Z,101261.31
2023-01-29T17:46:40.467Z,101257.63
2023-01-29T17:49:32.147Z,101261.09
2023-01-29T17:51:59.804Z,101256.19
2023-01-29T17:54:26.205Z,101256.38
2023-01-29T17:56:53.796Z,101257.75
2023-01-29T17:59:25.110Z,101251.53
2023-01-29T18:01:51.921Z,101249.72
2023-01-29T18:04:18.460Z,101250.09
2023-01-29T18:06:48.195Z,101239.66
2023-01-29T18:09:20.470Z,101246.41
2023-01-29T18:11:48.428Z,101241.69
2023-01-29T18:14:15.311Z,101236.97
2023-01-29T18:16:43.329Z,101238.47
2023-01-29T18:19:22.102Z,101236.09
2023-01-29T18:21:50.001Z,101232.75
2023-01-29T18:24:16.775Z,101230.47
2023-01-29T18:26:43.581Z,101228.63
2023-01-29T18:29:10.098Z,101227.63
2023-01-29T18:31:36.556Z,101233.84
2023-01-29T18:34:03.644Z,101224.34
2023-01-29T18:36:30.165Z,101230.63
2023-01-29T18:38:57.847Z,101231.56
2023-01-29T18:41:24.465Z,101226.53
2023-01-29T18:43:54.093Z,101229.75
2023-01-29T18:46:20.763Z,101226.84
2023-01-29T18:48:47.275Z,101228.84
2023-01-29T18:51:13.740Z,101219.56
2023-01-29T18:53:40.549Z,101217.41
2023-01-29T18:56:07.664Z,101213.63
2023-01-29T18:58:36.514Z,101209.47
2023-01-29T19:01:09.254Z,101211.16
2023-01-29T19:03:36.461Z,101210.22
2023-01-29T19:06:04.745Z,101218.00
2023-01-29T19:08:31.717Z,101216.97
2023-01-29T19:11:02.133Z,101218.69
2023-01-29T19:13:34.022Z,101217.97
2023-01-29T19:16:01.161Z,101210.75
2023-01-29T19:18:28.408Z,101217.22
2023-01-29T19:20:55.231Z,101207.09
2023-01-29T19:23:22.159Z,101209.88
2023-01-29T19:25:48.607Z,101212.34
2023-01-29T19:28:15.277Z,101207.75
2023-01-29T19:30:41.790Z,101217.06
2023-01-29T19:33:12.951Z,101212.91
2023-01-29T19:35:44.431Z,101213.44
2023-01-29T19:38:11.131Z,101207.34
2023-01-29T19:40:38.704Z,101206.34
2023-01-29T19:43:05.995Z,101203.63
2023-01-29T19:45:49.407Z,101200.09
2023-01-29T19:48:21.829Z,101204.34
2023-01-29T19:50:56.389Z,101204.53
2023-01-29T19:53:23.369Z,101212.31
2023-01-29T19:56:18.589Z,101209.88
2023-01-29T19:58:45.340Z,101205.34
2023-01-29T20:01:21.275Z,101210.00
2023-01-29T20:03:49.356Z,101205.16
2023-01-29T20:06:18.585Z,101203.47
2023-01-29T20:08:46.486Z,101196.69
2023-01-29T20:11:14.373Z,101204.25
2023-01-29T20:13:41.056Z,101200.59
2023-01-29T20:16:08.088Z,101199.75
2023-01-29T20:18:35.065Z,101193.56
2023-01-29T20:21:10.805Z,101183.00
2023-01-29T20:23:39.875Z,101186.28
2023-01-29T20:26:08.262Z,101175.03
2023-01-29T20:28:36.256Z,101169.97
2023-01-29T20:31:03.101Z,101160.03
2023-01-29T20:33:29.781Z,101157.63
2023-01-29T20:36:01.817Z,101165.59
2023-01-29T20:38:31.436Z,101154.50
2023-01-29T20:41:05.285Z,101155.53
2023-01-29T20:43:32.080Z,101151.38
2023-01-29T20:45:59.081Z,101141.75
2023-01-29T20:48:26.026Z,101133.13
2023-01-29T20:50:53.000Z,101124.63
2023-01-29T20:53:19.569Z,101122.34
2023-01-29T20:55:46.313Z,101110.06
2023-01-29T20:58:12.969Z,101115.06
2023-01-29T21:00:39.574Z,101108.25
2023-01-29T21:03:06.051Z,101110.94
2023-01-29T21:05:32.486Z,101114.94
2023-01-29T21:07:59.118Z,101110.16
2023-01-29T21:10:25.600Z,101114.28
2023-01-29T21:12:52.120Z,101101.69
2023-01-29T21:15:18.542Z,101102.34
2023-01-29T21:17:47.440Z,101089.63
2023-01-29T21:20:14.206Z,101085.53
2023-01-29T21:22:43.780Z,101089.25
2023-01-29T21:25:10.926Z,101085.91
2023-01-29T21:27:37.590Z,101094.94
2023-01-29T21:30:04.734Z,101092.28
2023-01-29T21:32:31.282Z,101088.59
2023-01-29T21:34:57.736Z,101087.53
2023-01-29T21:37:24.207Z,101085.00
2023-01-29T21:39:50.669Z,101075.31
2023-01-29T21:42:35.394Z,101062.22
2023-01-29T21:45:01.923Z,101056.00
2023-01-29T21:47:28.386Z,101059.50
2023-01-29T21:49:54.832Z,101056.16
2023-01-29T21:52:21.262Z,101047.47
2023-01-29T21:54:49.079Z,101036.81
2023-01-29T21:57:16.441Z,101031.72
2023-01-29T21:59:43.493Z,101026.56
2023-01-29T22:02:15.425Z,101023.31
2023-01-29T22:04:42.488Z,101011.91
2023-01-29T22:07:12.485Z,101018.16
2023-01-29T22:09:39.216Z,101021.66
2023-01-29T22:12:07.486Z,101021.69
2023-01-29T22:14:34.485Z,101023.47
2023-01-29T22:17:01.114Z,101020.66
2023-01-29T22:19:29.236Z,101020.53
2023-01-29T22:21:55.762Z,101013.38
2023-01-29T22:24:22.389Z,101016.50
2023-01-29T22:26:49.621Z,101022.38
2023-01-29T22:29:19.576Z,101028.09
2023-01-29T22:31:46.767Z,101032.41
2023-01-29T22:34:14.687Z,101035.97
2023-01-29T22:36:41.351Z,101029.91
2023-01-29T22:39:08.724Z,101022.84
2023-01-29T22:41:36.003Z,101015.06
2023-01-29T22:44:02.907Z,101007.34
2023-01-29T22:46:29.396Z,101014.16
2023-01-29T22:48:56.504Z,101008.09
2023-01-29T22:51:23.484Z,100995.81
2023-01-29T22:53:51.013Z,100990.72
2023-01-29T22:56:18.108Z,100994.25
2023-01-29T22:58:44.937Z,100997.78
2023-01-29T23:01:11.487Z,101000.28
2023-01-29T23:03:37.952Z,101000.22
2023-01-29T23:06:04.464Z,100986.22
2023-01-29T23:08:32.567Z,100982.50
2023-01-29T23:11:13.949Z,100964.34
2023-01-29T23:13:42.373Z,100960.13
2023-01-29T23:16:08.893Z,100954.03
2023-01-29T23:18:35.797Z,100944.34
2023-01-29T23:21:02.973Z,100946.38
2023-01-29T23:23:30.639Z,100956.72
2023-01-29T23:26:17.316Z,100976.31
2023-01-29T23:28:44.455Z,100975.06
2023-01-29T23:31:11.701Z,100979.53
2023-01-29T23:33:38.483Z,100968.25
2023-01-29T23:36:05.689Z,100975.25
2023-01-29T23:38:32.312Z,100983.59
2023-01-29T23:40:59.140Z,100984.16
2023-01-29T23:43:29.799Z,100983.28
2023-01-29T23:45:56.980Z,100987.97
2023-01-29T23:48:23.817Z,100995.44
2023-01-29T23:50:51.006Z,100994.81
2023-01-29T23:53:17.960Z,101006.91
2023-01-29T23:55:54.825Z,101005.34
2023-01-29T23:58:21.268Z,100993.63
